createdAt,value
2022-08-10T00:01:42.929Z,99.46
2022-08-10T00:04:10.622Z,100.00
2022-08-10T00:06:48.798Z,99.33
2022-08-10T00:09:17.489Z,100.00
2022-08-10T00:11:47.634Z,100.00
2022-08-10T00:14:15.658Z,99.43
2022-08-10T00:16:43.173Z,100.00
2022-08-10T00:19:10.421Z,100.00
2022-08-10T00:21:38.389Z,100.00
2022-08-10T00:24:06.422Z,100.00
2022-08-10T00:27:51.974Z,100.00
2022-08-10T00:29:25.535Z,100.00
2022-08-10T00:31:58.690Z,100.00
2022-08-10T00:34:27.430Z,100.00
2022-08-10T00:36:56.218Z,100.00
2022-08-10T00:39:26.018Z,100.00
2022-08-10T00:42:01.780Z,100.00
2022-08-10T00:44:40.192Z,100.00
2022-08-10T00:47:10.344Z,100.00
2022-08-10T00:49:55.766Z,100.00
2022-08-10T00:52:24.673Z,100.00
2022-08-10T00:54:53.260Z,100.00
2022-08-10T00:57:22.635Z,100.00
2022-08-10T00:59:59.323Z,100.00
2022-08-10T01:02:29.236Z,100.00
2022-08-10T01:05:00.951Z,100.00
2022-08-10T01:07:50.463Z,100.00
2022-08-10T01:10:29.563Z,100.00
2022-08-10T01:13:05.457Z,100.00
2022-08-10T01:15:43.569Z,100.00
2022-08-10T01:18:15.527Z,100.00
2022-08-10T01:21:00.195Z,100.00
2022-08-10T01:24:05.638Z,100.00
2022-08-10T01:26:43.336Z,100.00
2022-08-10T01:29:40.901Z,100.00
2022-08-10T01:32:14.416Z,100.00
2022-08-10T01:34:49.753Z,100.00
2022-08-10T01:37:21.470Z,100.00
2022-08-10T01:39:54.811Z,100.00
2022-08-10T01:42:24.241Z,100.00
2022-08-10T01:44:56.823Z,100.00
2022-08-10T01:47:31.367Z,100.00
2022-08-10T01:50:04.352Z,100.00
2022-08-10T01:52:35.640Z,100.00
2022-08-10T01:55:06.175Z,100.00
2022-08-10T01:57:35.377Z,100.00
2022-08-10T02:00:05.975Z,100.00
2022-08-10T02:02:38.862Z,100.00
2022-08-10T02:05:08.312Z,100.00
2022-08-10T02:07:37.917Z,100.00
2022-08-10T02:10:11.828Z,100.00
2022-08-10T02:12:41.513Z,100.00
2022-08-10T02:15:14.213Z,100.00
2022-08-10T02:17:59.904Z,100.00
2022-08-10T02:20:35.736Z,100.00
2022-08-10T02:23:06.070Z,100.00
2022-08-10T02:25:41.292Z,100.00
2022-08-10T02:28:29.869Z,100.00
2022-08-10T02:31:01.836Z,100.00
2022-08-10T02:33:37.084Z,100.00
2022-08-10T02:36:08.145Z,100.00
2022-08-10T02:38:59.591Z,100.00
2022-08-10T02:45:01.478Z,100.00
2022-08-10T02:45:20.851Z,100.00
2022-08-10T02:47:29.050Z,100.00
2022-08-10T02:50:22.852Z,100.00
2022-08-10T02:52:55.467Z,100.00
2022-08-10T02:55:32.413Z,100.00
2022-08-10T02:58:12.935Z,100.00
2022-08-10T03:00:50.313Z,100.00
2022-08-10T03:03:25.710Z,100.00
2022-08-10T03:06:01.589Z,100.00
2022-08-10T03:08:34.728Z,100.00
2022-08-10T03:11:05.396Z,100.00
2022-08-10T03:13:33.972Z,100.00
2022-08-10T03:16:02.676Z,100.00
2022-08-10T03:18:32.676Z,100.00
2022-08-10T03:21:03.472Z,100.00
2022-08-10T03:23:33.238Z,100.00
2022-08-10T03:26:03.726Z,100.00
2022-08-10T03:28:35.112Z,100.00
2022-08-10T03:31:04.746Z,100.00
2022-08-10T03:33:35.526Z,100.00
2022-08-10T03:36:42.975Z,100.00
2022-08-10T03:38:53.136Z,100.00
2022-08-10T03:41:27.079Z,100.00
2022-08-10T03:44:01.848Z,100.00
2022-08-10T03:46:33.127Z,100.00
2022-08-10T03:49:04.203Z,100.00
2022-08-10T03:51:34.801Z,100.00
2022-08-10T03:54:06.972Z,100.00
2022-08-10T03:56:37.270Z,100.00
2022-08-10T03:59:05.873Z,100.00
2022-08-10T04:02:43.692Z,100.00
2022-08-10T04:04:24.718Z,100.00
2022-08-10T04:06:56.523Z,100.00
2022-08-10T04:09:43.341Z,100.00
2022-08-10T04:12:14.855Z,100.00
2022-08-10T04:14:50.357Z,100.00
2022-08-10T04:17:56.728Z,100.00
2022-08-10T04:20:12.559Z,100.00
2022-08-10T04:22:43.603Z,100.00
2022-08-10T04:25:13.450Z,100.00
2022-08-10T04:27:41.654Z,100.00
2022-08-10T04:30:10.064Z,100.00
2022-08-10T04:32:38.339Z,100.00
2022-08-10T04:35:10.029Z,100.00
2022-08-10T04:37:47.207Z,100.00
2022-08-10T04:40:28.317Z,100.00
2022-08-10T04:43:07.505Z,100.00
2022-08-10T04:45:50.326Z,100.00
2022-08-10T04:48:42.634Z,100.00
2022-08-10T04:51:15.417Z,100.00
2022-08-10T04:54:04.207Z,100.00
2022-08-10T04:56:37.023Z,100.00
2022-08-10T04:59:07.976Z,100.00
2022-08-10T05:02:12.074Z,100.00
2022-08-10T05:04:35.681Z,100.00
2022-08-10T05:07:16.280Z,100.00
2022-08-10T05:10:02.146Z,100.00
2022-08-10T05:12:35.967Z,100.00
2022-08-10T05:15:07.989Z,100.00
2022-08-10T05:17:35.558Z,100.00
2022-08-10T05:20:06.878Z,100.00
2022-08-10T05:22:36.300Z,100.00
2022-08-10T05:25:06.067Z,100.00
2022-08-10T05:27:36.192Z,100.00
2022-08-10T05:30:04.677Z,100.00
2022-08-10T05:32:32.345Z,100.00
2022-08-10T05:34:59.887Z,100.00
2022-08-10T05:38:12.331Z,100.00
2022-08-10T05:40:17.207Z,100.00
2022-08-10T05:42:46.136Z,100.00
2022-08-10T05:45:20.352Z,100.00
2022-08-10T05:48:41.656Z,100.00
2022-08-10T05:50:35.639Z,100.00
2022-08-10T05:53:59.642Z,100.00
2022-08-10T05:55:51.330Z,100.00
2022-08-10T05:58:20.454Z,100.00
2022-08-10T06:00:50.611Z,100.00
2022-08-10T06:03:26.458Z,100.00
2022-08-10T06:05:56.445Z,100.00
2022-08-10T06:08:31.292Z,100.00
2022-08-10T06:12:27.719Z,100.00
2022-08-10T06:13:59.688Z,100.00
2022-08-10T06:16:41.147Z,100.00
2022-08-10T06:19:11.875Z,100.00
2022-08-10T06:21:54.912Z,100.00
2022-08-10T06:24:31.006Z,100.00
2022-08-10T06:26:58.648Z,100.00
2022-08-10T06:29:31.324Z,100.00
2022-08-10T06:32:00.954Z,100.00
2022-08-10T06:34:32.872Z,100.00
2022-08-10T06:37:03.188Z,98.19
2022-08-10T06:39:34.134Z,98.39
2022-08-10T06:42:20.446Z,93.50
2022-08-10T06:45:00.373Z,93.44
2022-08-10T06:47:44.421Z,93.80
2022-08-10T06:50:34.383Z,92.60
2022-08-10T06:53:03.585Z,89.93
2022-08-10T06:55:39.892Z,89.81
2022-08-10T06:58:20.028Z,87.85
2022-08-10T07:00:58.838Z,88.49
2022-08-10T07:03:34.282Z,88.56
2022-08-10T07:06:03.895Z,85.31
2022-08-10T07:08:34.548Z,86.08
2022-08-10T07:11:03.332Z,83.47
2022-08-10T07:14:16.247Z,83.12
2022-08-10T07:16:23.817Z,79.57
2022-08-10T07:18:51.105Z,79.54
2022-08-10T07:21:19.940Z,80.15
2022-08-10T07:23:59.690Z,77.87
2022-08-10T07:26:30.910Z,76.91
2022-08-10T07:28:59.649Z,75.34
2022-08-10T07:31:54.787Z,72.50
2022-08-10T07:34:21.656Z,71.91
2022-08-10T07:37:00.917Z,71.89
2022-08-10T07:39:57.908Z,71.15
2022-08-10T07:42:21.052Z,67.42
2022-08-10T07:44:49.357Z,68.99
2022-08-10T07:47:52.662Z,66.74
2022-08-10T07:50:14.361Z,65.74
2022-08-10T07:52:44.852Z,66.08
2022-08-10T07:55:16.042Z,66.36
2022-08-10T07:57:48.292Z,65.36
2022-08-10T08:00:17.416Z,63.76
2022-08-10T08:02:52.522Z,61.46
2022-08-10T08:05:57.206Z,61.63
2022-08-10T08:08:13.772Z,62.21
2022-08-10T08:10:43.071Z,60.39
2022-08-10T08:13:14.454Z,59.85
2022-08-10T08:16:16.719Z,58.70
2022-08-10T08:18:37.187Z,59.36
2022-08-10T08:21:18.980Z,61.05
2022-08-10T08:24:11.225Z,59.59
2022-08-10T08:26:49.332Z,58.75
2022-08-10T08:29:20.828Z,62.39
2022-08-10T08:31:54.539Z,58.77
2022-08-10T08:34:35.092Z,59.90
2022-08-10T08:37:03.952Z,59.69
2022-08-10T08:39:31.841Z,57.87
2022-08-10T08:42:15.910Z,56.81
2022-08-10T08:45:00.274Z,56.65
2022-08-10T08:48:05.646Z,55.84
2022-08-10T08:51:08.661Z,57.03
2022-08-10T08:54:02.748Z,54.49
2022-08-10T08:56:42.287Z,53.81
2022-08-10T08:59:24.853Z,55.13
2022-08-10T09:02:24.467Z,54.92
2022-08-10T09:05:07.216Z,54.32
2022-08-10T09:08:01.153Z,54.66
2022-08-10T09:10:55.181Z,54.44
2022-08-10T09:13:28.428Z,55.13
2022-08-10T09:16:23.162Z,53.46
2022-08-10T09:18:56.401Z,54.09
2022-08-10T09:21:31.043Z,52.33
2022-08-10T09:24:07.416Z,51.77
2022-08-10T09:26:46.311Z,52.03
2022-08-10T09:29:18.260Z,51.26
2022-08-10T09:33:05.575Z,51.73
2022-08-10T09:36:27.823Z,52.14
2022-08-10T09:38:02.207Z,51.61
2022-08-10T09:41:01.302Z,53.62
2022-08-10T09:43:44.000Z,51.87
2022-08-10T09:46:23.250Z,51.48
2022-08-10T09:49:06.283Z,52.27
2022-08-10T09:51:46.248Z,52.16
2022-08-10T09:54:29.880Z,50.94
2022-08-10T09:57:44.552Z,50.26
2022-08-10T10:00:06.296Z,48.86
2022-08-10T10:02:40.582Z,49.81
2022-08-10T10:05:19.314Z,49.74
2022-08-10T10:07:54.933Z,47.94
2022-08-10T10:10:31.033Z,48.33
2022-08-10T10:13:09.473Z,47.58
2022-08-10T10:15:45.333Z,46.89
2022-08-10T10:18:21.884Z,47.79
2022-08-10T10:20:58.390Z,48.32
2022-08-10T10:23:38.304Z,47.75
2022-08-10T10:26:19.317Z,46.74
2022-08-10T10:31:58.187Z,46.05
2022-08-10T10:34:36.036Z,46.70
2022-08-10T10:37:07.005Z,46.84
2022-08-10T10:39:36.266Z,48.43
2022-08-10T10:42:35.070Z,46.29
2022-08-10T10:45:12.513Z,45.83
2022-08-10T10:47:57.369Z,45.49
2022-08-10T10:50:31.517Z,46.05
2022-08-10T10:53:05.665Z,45.16
2022-08-10T10:56:15.156Z,45.28
2022-08-10T10:58:43.651Z,45.54
2022-08-10T11:01:35.674Z,45.15
2022-08-10T11:04:16.409Z,47.10
2022-08-10T11:06:53.191Z,45.18
2022-08-10T11:10:04.900Z,45.12
2022-08-10T11:12:23.264Z,44.53
2022-08-10T11:15:03.829Z,44.64
2022-08-10T11:17:39.054Z,43.69
2022-08-10T11:20:19.504Z,43.95
2022-08-10T11:22:53.717Z,42.90
2022-08-10T11:25:28.560Z,43.17
2022-08-10T11:28:05.548Z,44.23
2022-08-10T11:30:53.617Z,43.42
2022-08-10T11:33:30.702Z,43.82
2022-08-10T11:36:04.097Z,41.59
2022-08-10T11:38:52.243Z,42.49
2022-08-10T11:42:09.551Z,42.64
2022-08-10T11:44:30.169Z,41.81
2022-08-10T11:47:04.755Z,42.34
2022-08-10T11:49:40.002Z,42.26
2022-08-10T11:52:16.872Z,40.98
2022-08-10T11:54:55.822Z,41.96
2022-08-10T11:57:55.470Z,43.12
2022-08-10T12:00:18.933Z,40.60
2022-08-10T12:02:51.513Z,39.16
2022-08-10T12:05:46.580Z,41.26
2022-08-10T12:10:04.662Z,40.55
2022-08-10T12:11:05.718Z,39.88
2022-08-10T12:13:53.870Z,39.49
2022-08-10T12:16:31.921Z,38.82
2022-08-10T12:19:04.780Z,39.63
2022-08-10T12:21:40.680Z,40.10
2022-08-10T12:24:16.313Z,41.79
2022-08-10T12:26:50.054Z,40.24
2022-08-10T12:29:28.659Z,39.25
2022-08-10T12:32:04.002Z,38.55
2022-08-10T12:34:40.339Z,39.40
2022-08-10T12:37:23.010Z,38.65
2022-08-10T12:40:33.928Z,37.94
2022-08-10T12:43:01.521Z,38.23
2022-08-10T12:46:06.323Z,39.94
2022-08-10T12:48:39.498Z,40.28
2022-08-10T12:51:19.930Z,38.80
2022-08-10T12:53:55.879Z,38.28
2022-08-10T12:56:27.042Z,39.01
2022-08-10T12:59:00.333Z,39.05
2022-08-10T13:02:06.591Z,38.31
2022-08-10T13:04:28.700Z,37.24
2022-08-10T13:06:59.352Z,36.37
2022-08-10T13:09:31.002Z,37.20
2022-08-10T13:12:35.886Z,36.05
2022-08-10T13:14:55.930Z,37.28
2022-08-10T13:17:38.689Z,37.61
2022-08-10T13:20:15.841Z,34.95
2022-08-10T13:22:47.705Z,37.02
2022-08-10T13:25:20.605Z,36.00
2022-08-10T13:28:01.223Z,36.87
2022-08-10T13:30:39.678Z,36.14
2022-08-10T13:33:11.559Z,35.37
2022-08-10T13:35:39.388Z,36.17
2022-08-10T13:38:09.111Z,35.15
2022-08-10T13:40:41.486Z,35.75
2022-08-10T13:43:19.371Z,36.33
2022-08-10T13:45:50.000Z,35.83
2022-08-10T13:48:22.648Z,36.83
2022-08-10T13:50:52.314Z,36.11
2022-08-10T13:53:21.296Z,34.94
2022-08-10T13:55:56.846Z,34.51
2022-08-10T13:58:30.955Z,35.49
2022-08-10T14:01:01.204Z,34.81
2022-08-10T14:03:34.861Z,35.73
2022-08-10T14:06:04.823Z,35.15
2022-08-10T14:08:33.527Z,35.89
2022-08-10T14:11:10.927Z,35.30
2022-08-10T14:13:45.760Z,37.12
2022-08-10T14:16:14.809Z,35.45
2022-08-10T14:18:44.026Z,35.60
2022-08-10T14:21:12.363Z,36.39
2022-08-10T14:23:41.038Z,35.91
2022-08-10T14:26:11.914Z,36.14
2022-08-10T14:28:46.608Z,36.86
2022-08-10T14:31:21.125Z,36.33
2022-08-10T14:33:55.670Z,35.88
2022-08-10T14:36:32.463Z,34.85
2022-08-10T14:39:02.780Z,35.82
2022-08-10T14:42:03.288Z,35.66
2022-08-10T14:44:22.549Z,35.62
2022-08-10T14:46:56.821Z,35.25
2022-08-10T14:49:27.223Z,35.10
2022-08-10T14:52:01.727Z,34.23
2022-08-10T14:54:30.911Z,34.54
2022-08-10T14:57:11.242Z,35.80
2022-08-10T15:00:24.609Z,35.93
2022-08-10T15:02:55.910Z,36.73
2022-08-10T15:05:35.992Z,35.83
2022-08-10T15:08:09.516Z,35.56
2022-08-10T15:10:38.556Z,35.58
2022-08-10T15:13:34.793Z,34.28
2022-08-10T15:16:12.487Z,34.39
2022-08-10T15:18:58.026Z,35.99
2022-08-10T15:21:42.202Z,35.38
2022-08-10T15:24:15.889Z,36.12
2022-08-10T15:26:58.412Z,35.34
2022-08-10T15:29:28.228Z,36.01
2022-08-10T15:31:56.080Z,35.42
2022-08-10T15:34:28.941Z,35.38
2022-08-10T15:37:36.507Z,35.06
2022-08-10T15:40:20.970Z,35.61
2022-08-10T15:43:05.612Z,35.81
2022-08-10T15:45:57.705Z,33.91
2022-08-10T15:48:27.699Z,32.94
2022-08-10T15:51:02.031Z,34.80
2022-08-10T15:53:49.548Z,32.68
2022-08-10T15:56:28.258Z,33.60
2022-08-10T15:59:08.194Z,33.07
2022-08-10T16:02:13.854Z,33.47
2022-08-10T16:04:35.996Z,33.69
2022-08-10T16:07:09.256Z,33.56
2022-08-10T16:10:23.636Z,34.68
2022-08-10T16:12:35.678Z,34.13
2022-08-10T16:15:13.123Z,34.29
2022-08-10T16:17:54.827Z,34.49
2022-08-10T16:20:28.141Z,33.32
2022-08-10T16:23:02.494Z,34.29
2022-08-10T16:25:48.067Z,33.74
2022-08-10T16:28:23.570Z,33.04
2022-08-10T16:30:56.455Z,34.11
2022-08-10T16:33:53.605Z,34.98
2022-08-10T16:36:18.094Z,34.91
2022-08-10T16:38:50.224Z,35.74
2022-08-10T16:42:00.289Z,35.53
2022-08-10T16:44:11.350Z,36.34
2022-08-10T16:46:43.916Z,39.21
2022-08-10T16:49:19.182Z,38.05
2022-08-10T16:51:49.597Z,35.79
2022-08-10T16:54:24.823Z,37.12
2022-08-10T16:57:00.604Z,36.59
2022-08-10T16:59:31.926Z,36.08
2022-08-10T17:02:01.911Z,35.84
2022-08-10T17:04:33.423Z,37.14
2022-08-10T17:07:05.849Z,38.06
2022-08-10T17:09:36.766Z,39.03
2022-08-10T17:12:14.235Z,37.96
2022-08-10T17:14:44.264Z,37.50
2022-08-10T17:17:18.258Z,36.62
2022-08-10T17:19:48.999Z,36.45
2022-08-10T17:22:20.012Z,36.90
2022-08-10T17:24:53.252Z,37.61
2022-08-10T17:28:04.448Z,36.38
2022-08-10T17:30:17.943Z,36.04
2022-08-10T17:33:03.826Z,37.18
2022-08-10T17:35:36.477Z,39.05
2022-08-10T17:38:09.256Z,39.23
2022-08-10T17:40:50.651Z,41.88
2022-08-10T17:44:01.340Z,42.11
2022-08-10T17:46:12.623Z,42.35
2022-08-10T17:48:41.861Z,43.33
2022-08-10T17:51:15.331Z,43.51
2022-08-10T17:53:47.512Z,42.73
2022-08-10T17:56:17.503Z,43.87
2022-08-10T17:58:49.652Z,44.69
2022-08-10T18:01:40.365Z,44.68
2022-08-10T18:04:13.617Z,45.72
2022-08-10T18:06:45.646Z,45.86
2022-08-10T18:09:27.367Z,46.01
2022-08-10T18:12:01.802Z,44.92
2022-08-10T18:14:31.049Z,45.45
2022-08-10T18:17:01.566Z,46.52
2022-08-10T18:19:31.690Z,46.97
2022-08-10T18:22:02.194Z,47.06
2022-08-10T18:24:30.567Z,46.63
2022-08-10T18:27:03.329Z,47.14
2022-08-10T18:29:33.886Z,47.13
2022-08-10T18:32:05.729Z,47.89
2022-08-10T18:34:34.359Z,48.74
2022-08-10T18:37:07.043Z,48.27
2022-08-10T18:39:37.192Z,47.70
2022-08-10T18:42:09.184Z,48.29
2022-08-10T18:44:40.341Z,48.98
2022-08-10T18:47:15.810Z,48.73
2022-08-10T18:49:54.129Z,47.84
2022-08-10T18:52:26.833Z,48.23
2022-08-10T18:55:03.220Z,49.49
2022-08-10T18:57:46.071Z,49.50
2022-08-10T19:00:14.897Z,49.68
2022-08-10T19:03:00.131Z,49.48
2022-08-10T19:05:47.830Z,49.48
2022-08-10T19:08:49.106Z,51.04
2022-08-10T19:11:30.060Z,51.04
2022-08-10T19:14:07.310Z,51.77
2022-08-10T19:16:46.330Z,53.04
2022-08-10T19:19:30.067Z,53.95
2022-08-10T19:22:04.297Z,54.16
2022-08-10T19:24:45.621Z,54.52
2022-08-10T19:27:29.591Z,53.42
2022-08-10T19:30:12.366Z,53.65
2022-08-10T19:33:06.450Z,55.30
2022-08-10T19:36:04.459Z,55.01
2022-08-10T19:38:49.737Z,55.39
2022-08-10T19:41:32.524Z,54.89
2022-08-10T19:44:21.885Z,56.92
2022-08-10T19:46:57.325Z,56.14
2022-08-10T19:49:37.651Z,55.17
2022-08-10T19:52:13.981Z,56.00
2022-08-10T19:54:54.760Z,56.43
2022-08-10T19:57:35.864Z,56.71
2022-08-10T20:00:19.592Z,55.69
2022-08-10T20:03:00.524Z,55.35
2022-08-10T20:05:33.622Z,56.60
2022-08-10T20:08:10.496Z,56.59
2022-08-10T20:10:47.106Z,56.23
2022-08-10T20:13:26.065Z,57.94
2022-08-10T20:15:58.533Z,59.08
2022-08-10T20:18:31.216Z,59.83
2022-08-10T20:21:04.117Z,61.19
2022-08-10T20:23:36.075Z,61.35
2022-08-10T20:26:15.190Z,62.06
2022-08-10T20:28:59.395Z,63.78
2022-08-10T20:31:34.183Z,64.39
2022-08-10T20:34:07.440Z,64.91
2022-08-10T20:36:39.523Z,64.41
2022-08-10T20:39:16.835Z,65.88
2022-08-10T20:41:55.991Z,66.21
2022-08-10T20:44:37.945Z,67.17
2022-08-10T20:47:11.873Z,67.43
2022-08-10T20:49:53.782Z,67.29
2022-08-10T20:52:25.719Z,67.72
2022-08-10T20:55:00.475Z,67.37
2022-08-10T20:57:57.434Z,68.12
2022-08-10T21:00:42.653Z,67.17
2022-08-10T21:03:33.154Z,70.04
2022-08-10T21:06:15.342Z,69.59
2022-08-10T21:08:51.074Z,71.40
2022-08-10T21:11:35.197Z,71.56
2022-08-10T21:14:20.109Z,73.28
2022-08-10T21:17:07.107Z,74.12
2022-08-10T21:20:04.380Z,73.70
2022-08-10T21:22:39.489Z,74.75
2022-08-10T21:25:15.482Z,73.83
2022-08-10T21:28:16.057Z,75.13
2022-08-10T21:31:04.839Z,75.97
2022-08-10T21:33:37.450Z,75.31
2022-08-10T21:36:15.827Z,75.19
2022-08-10T21:38:52.856Z,73.93
2022-08-10T21:41:26.548Z,73.22
2022-08-10T21:44:24.337Z,75.29
2022-08-10T21:47:01.746Z,74.32
2022-08-10T21:49:38.274Z,74.55
2022-08-10T21:52:16.093Z,76.86
2022-08-10T21:54:48.706Z,76.40
2022-08-10T21:57:23.658Z,74.90
2022-08-10T21:59:58.854Z,73.37
2022-08-10T22:05:15.993Z,75.25
2022-08-10T22:07:51.054Z,76.46
2022-08-10T22:10:25.635Z,76.44
2022-08-10T22:12:58.613Z,75.61
2022-08-10T22:16:03.549Z,77.86
2022-08-10T22:18:31.585Z,77.58
2022-08-10T22:21:10.335Z,79.85
2022-08-10T22:23:56.640Z,80.53
2022-08-10T22:26:39.173Z,80.51
2022-08-10T22:29:11.632Z,82.55
2022-08-10T22:31:53.250Z,80.51
2022-08-10T22:34:44.445Z,80.46
2022-08-10T22:37:28.438Z,79.78
2022-08-10T22:40:11.046Z,79.71
2022-08-10T22:42:58.379Z,80.31
2022-08-10T22:45:31.806Z,81.31
2022-08-10T22:48:00.015Z,81.62
2022-08-10T22:50:29.233Z,82.65
2022-08-10T22:53:06.239Z,82.89
2022-08-10T22:55:36.910Z,83.93
2022-08-10T22:58:04.012Z,82.20
2022-08-10T23:00:32.497Z,82.88
2022-08-10T23:03:11.548Z,83.25
2022-08-10T23:05:42.444Z,83.79
2022-08-10T23:08:29.725Z,83.12
2022-08-10T23:11:04.846Z,84.22
2022-08-10T23:13:36.042Z,82.35
2022-08-10T23:16:08.420Z,84.34
2022-08-10T23:18:40.177Z,84.01
2022-08-10T23:21:16.430Z,85.83
2022-08-10T23:23:47.323Z,87.14
2022-08-10T23:26:22.838Z,85.89
2022-08-10T23:28:58.398Z,87.56
2022-08-10T23:31:53.513Z,88.56
2022-08-10T23:34:22.017Z,88.48
2022-08-10T23:36:52.914Z,90.85
2022-08-10T23:39:30.367Z,90.22
2022-08-10T23:42:06.403Z,89.56
2022-08-10T23:44:43.683Z,91.01
2022-08-10T23:47:13.910Z,94.66
2022-08-10T23:49:42.526Z,93.63
2022-08-10T23:52:12.618Z,95.00
2022-08-10T23:54:49.205Z,94.96
2022-08-10T23:57:18.857Z,94.34
2022-08-10T23:59:51.812Z,94.95
